createdAt,value
2018-12-25T00:01:36.315Z,0
2018-12-25T00:02:36.172Z,0
2018-12-25T00:03:36.213Z,0
2018-12-25T00:04:36.231Z,0
2018-12-25T00:05:36.272Z,0
2018-12-25T00:06:36.836Z,0
2018-12-25T00:07:36.318Z,0
2018-12-25T00:08:36.209Z,0
2018-12-25T00:09:36.257Z,0
2018-12-25T00:10:36.233Z,0
2018-12-25T00:11:36.240Z,0
2018-12-25T00:12:36.464Z,0
2018-12-25T00:13:36.268Z,0
2018-12-25T00:14:36.234Z,0
2018-12-25T00:15:36.275Z,0
2018-12-25T00:16:36.263Z,0
2018-12-25T00:17:36.295Z,0
2018-12-25T00:18:36.603Z,0
2018-12-25T00:19:36.300Z,0
2018-12-25T00:20:36.377Z,0
2018-12-25T00:21:36.279Z,0
2018-12-25T00:22:36.237Z,0
2018-12-25T00:23:36.309Z,0
2018-12-25T00:24:36.581Z,0
2018-12-25T00:25:36.256Z,0
2018-12-25T00:26:36.300Z,0
2018-12-25T00:27:36.297Z,0
2018-12-25T00:28:36.200Z,0
2018-12-25T00:29:36.268Z,0
2018-12-25T00:30:36.559Z,0
2018-12-25T00:31:36.605Z,0
2018-12-25T00:32:36.283Z,0
2018-12-25T00:33:36.311Z,0
2018-12-25T00:34:36.354Z,0
2018-12-25T00:35:36.340Z,0
2018-12-25T00:36:36.344Z,0
2018-12-25T00:37:36.611Z,0
2018-12-25T00:38:36.319Z,0
2018-12-25T00:39:36.274Z,0
2018-12-25T00:40:36.343Z,0
2018-12-25T00:41:36.310Z,0
2018-12-25T00:42:36.319Z,0
2018-12-25T00:43:36.591Z,0
2018-12-25T00:44:36.295Z,0
2018-12-25T00:45:36.314Z,0
2018-12-25T00:46:36.302Z,0
2018-12-25T00:47:36.319Z,0
2018-12-25T00:48:36.667Z,0
2018-12-25T00:49:36.311Z,0
2018-12-25T00:50:36.257Z,0
2018-12-25T00:51:36.316Z,0
2018-12-25T00:52:36.255Z,0
2018-12-25T00:53:36.343Z,0
2018-12-25T00:54:36.634Z,0
2018-12-25T00:55:36.292Z,0
2018-12-25T00:56:36.358Z,0
2018-12-25T00:57:36.335Z,0
2018-12-25T00:58:36.256Z,0
2018-12-25T00:59:36.274Z,0
2018-12-25T01:00:36.644Z,0
2018-12-25T01:01:36.297Z,0
2018-12-25T01:02:36.297Z,0
2018-12-25T01:03:36.303Z,0
2018-12-25T01:04:36.335Z,0
2018-12-25T01:05:36.315Z,0
2018-12-25T01:06:36.694Z,0
2018-12-25T01:07:36.311Z,0
2018-12-25T01:08:36.310Z,0
2018-12-25T01:09:36.326Z,0
2018-12-25T01:10:36.335Z,0
2018-12-25T01:11:36.378Z,0
2018-12-25T01:12:36.716Z,0
2018-12-25T01:13:36.382Z,0
2018-12-25T01:14:36.350Z,0
2018-12-25T01:15:36.425Z,0
2018-12-25T01:16:36.325Z,0
2018-12-25T01:17:36.367Z,0
2018-12-25T01:18:36.802Z,0
2018-12-25T01:19:36.343Z,0
2018-12-25T01:20:36.356Z,0
2018-12-25T01:21:36.344Z,0
2018-12-25T01:22:36.336Z,0
2018-12-25T01:23:36.411Z,0
2018-12-25T01:24:36.749Z,0
2018-12-25T01:25:36.358Z,0
2018-12-25T01:26:36.456Z,0
2018-12-25T01:27:36.322Z,0
2018-12-25T01:28:36.354Z,0
2018-12-25T01:29:36.414Z,0
2018-12-25T01:30:36.751Z,0
2018-12-25T01:31:36.390Z,0
2018-12-25T01:32:36.355Z,0
2018-12-25T01:33:36.378Z,0
2018-12-25T01:34:36.407Z,0
2018-12-25T01:35:36.401Z,0
2018-12-25T01:36:36.793Z,0
2018-12-25T01:37:36.393Z,0
2018-12-25T01:38:36.395Z,0
2018-12-25T01:39:36.477Z,0
2018-12-25T01:40:36.383Z,0
2018-12-25T01:41:36.427Z,0
2018-12-25T01:42:36.709Z,0
2018-12-25T01:43:36.377Z,0
2018-12-25T01:44:36.379Z,0
2018-12-25T01:45:36.351Z,0
2018-12-25T01:46:36.391Z,0
2018-12-25T01:47:36.401Z,0
2018-12-25T01:48:36.770Z,0
2018-12-25T01:49:40.623Z,0
2018-12-25T01:50:36.398Z,0
2018-12-25T01:51:36.363Z,0
2018-12-25T01:52:36.384Z,0
2018-12-25T01:53:36.391Z,0
2018-12-25T01:54:36.781Z,0
2018-12-25T01:55:36.385Z,0
2018-12-25T01:56:36.411Z,0
2018-12-25T01:57:36.401Z,0
2018-12-25T01:58:36.389Z,0
2018-12-25T01:59:36.436Z,0
2018-12-25T02:00:36.744Z,0
2018-12-25T02:01:36.419Z,0
2018-12-25T02:02:36.404Z,0
2018-12-25T02:03:36.494Z,0
2018-12-25T02:04:36.370Z,0
2018-12-25T02:05:36.368Z,0
2018-12-25T02:06:36.768Z,0
2018-12-25T02:07:36.412Z,0
2018-12-25T02:08:36.415Z,0
2018-12-25T02:09:36.413Z,0
2018-12-25T02:10:36.402Z,0
2018-12-25T02:11:36.447Z,0
2018-12-25T02:12:36.824Z,0
2018-12-25T02:13:36.443Z,0
2018-12-25T02:14:36.429Z,0
2018-12-25T02:15:36.390Z,0
2018-12-25T02:16:36.417Z,0
2018-12-25T02:17:36.449Z,0
2018-12-25T02:18:36.879Z,0
2018-12-25T02:19:43.237Z,0
2018-12-25T02:20:36.454Z,0
2018-12-25T02:21:36.429Z,0
2018-12-25T02:22:36.470Z,0
2018-12-25T02:23:36.471Z,0
2018-12-25T02:24:36.840Z,0
2018-12-25T02:25:36.447Z,0
2018-12-25T02:26:36.415Z,0
2018-12-25T02:27:36.433Z,0
2018-12-25T02:28:36.469Z,0
2018-12-25T02:29:36.471Z,0
2018-12-25T02:30:36.931Z,0
2018-12-25T02:31:36.444Z,0
2018-12-25T02:32:36.904Z,0
2018-12-25T02:33:36.602Z,0
2018-12-25T02:34:37.162Z,0
2018-12-25T02:35:36.551Z,0
2018-12-25T02:36:36.795Z,0
2018-12-25T02:37:37.049Z,0
2018-12-25T02:38:36.468Z,0
2018-12-25T02:39:43.773Z,0
2018-12-25T02:40:36.475Z,0
2018-12-25T02:48:04.296Z,0
2018-12-25T02:48:16.921Z,0
2018-12-25T02:49:18.357Z,0
2018-12-25T02:50:16.942Z,0
2018-12-25T02:51:17.173Z,0
2018-12-25T02:52:16.877Z,0
2018-12-25T02:53:16.946Z,0
2018-12-25T02:54:16.929Z,0
2018-12-25T02:55:16.894Z,0
2018-12-25T02:56:16.949Z,0
2018-12-25T02:57:17.191Z,0
2018-12-25T02:58:16.844Z,0
2018-12-25T02:59:16.935Z,0
2018-12-25T03:00:16.927Z,0
2018-12-25T03:01:16.924Z,0
2018-12-25T03:02:16.899Z,0
2018-12-25T03:03:17.272Z,0
2018-12-25T03:04:17.054Z,0
2018-12-25T03:05:16.990Z,0
2018-12-25T03:06:16.956Z,0
2018-12-25T03:07:16.991Z,0
2018-12-25T03:08:17.043Z,0
2018-12-25T03:09:17.240Z,0
2018-12-25T03:10:16.946Z,0
2018-12-25T03:11:16.979Z,0
2018-12-25T03:12:17.000Z,0
2018-12-25T03:13:16.954Z,0
2018-12-25T03:14:17.066Z,0
2018-12-25T03:15:17.277Z,0
2018-12-25T03:16:16.954Z,0
2018-12-25T03:17:16.930Z,0
2018-12-25T03:18:16.938Z,0
2018-12-25T03:19:16.946Z,0
2018-12-25T03:20:16.972Z,0
2018-12-25T03:21:17.265Z,0
2018-12-25T03:22:16.912Z,0
2018-12-25T03:23:16.964Z,0
2018-12-25T03:24:16.943Z,0
2018-12-25T03:25:16.949Z,0
2018-12-25T03:26:16.919Z,0
2018-12-25T03:27:17.290Z,0
2018-12-25T03:28:17.261Z,0
2018-12-25T03:29:16.994Z,0
2018-12-25T03:30:17.210Z,0
2018-12-25T03:31:16.986Z,0
2018-12-25T03:32:17.181Z,0
2018-12-25T03:33:17.349Z,0
2018-12-25T03:34:16.952Z,0
2018-12-25T03:35:16.998Z,0
2018-12-25T03:36:16.939Z,0
2018-12-25T03:37:16.954Z,0
2018-12-25T03:38:16.928Z,0
2018-12-25T03:39:17.218Z,0
2018-12-25T03:40:17.251Z,0
2018-12-25T03:41:16.955Z,0
2018-12-25T03:42:16.980Z,0
2018-12-25T03:43:16.948Z,0
2018-12-25T03:44:17.012Z,0
2018-12-25T03:45:16.998Z,0
2018-12-25T03:46:17.362Z,0
2018-12-25T03:47:16.982Z,0
2018-12-25T03:48:17.059Z,0
2018-12-25T03:49:17.104Z,0
2018-12-25T03:50:25.463Z,0
2018-12-25T03:51:18.627Z,0
2018-12-25T03:52:17.158Z,0
2018-12-25T03:53:17.049Z,0
2018-12-25T03:54:17.077Z,0
2018-12-25T03:55:17.235Z,0
2018-12-25T03:56:17.109Z,0
2018-12-25T03:57:17.301Z,0
2018-12-25T03:58:16.954Z,0
2018-12-25T03:59:17.028Z,0
2018-12-25T04:00:17.119Z,0
2018-12-25T04:01:17.055Z,0
2018-12-25T04:02:17.019Z,0
2018-12-25T04:03:17.445Z,0
2018-12-25T04:04:17.349Z,0
2018-12-25T04:05:17.073Z,0
2018-12-25T04:06:16.968Z,0
2018-12-25T04:13:43.685Z,0
2018-12-25T04:13:56.314Z,0
2018-12-25T04:14:56.345Z,0
2018-12-25T04:15:56.333Z,0
2018-12-25T04:16:56.297Z,0
2018-12-25T04:17:56.294Z,0
2018-12-25T04:18:56.704Z,0
2018-12-25T04:19:56.457Z,0
2018-12-25T04:20:56.291Z,0
2018-12-25T04:21:56.339Z,0
2018-12-25T04:22:56.303Z,0
2018-12-25T04:23:56.271Z,0
2018-12-25T04:24:56.642Z,0
2018-12-25T04:25:56.340Z,0
2018-12-25T04:26:56.358Z,0
2018-12-25T04:27:56.354Z,0
2018-12-25T04:28:56.383Z,0
2018-12-25T04:29:56.348Z,0
2018-12-25T04:30:56.693Z,0
2018-12-25T04:31:56.334Z,0
2018-12-25T04:32:56.405Z,0
2018-12-25T04:33:56.333Z,0
2018-12-25T04:34:56.349Z,0
2018-12-25T04:35:56.343Z,0
2018-12-25T04:36:57.745Z,0
2018-12-25T04:37:56.357Z,0
2018-12-25T04:38:56.427Z,0
2018-12-25T04:39:56.332Z,0
2018-12-25T04:40:56.459Z,0
2018-12-25T04:41:56.428Z,0
2018-12-25T04:42:56.863Z,0
2018-12-25T04:43:56.320Z,0
2018-12-25T04:44:56.407Z,0
2018-12-25T04:45:56.371Z,0
2018-12-25T04:46:56.312Z,0
2018-12-25T04:47:56.409Z,0
2018-12-25T04:48:58.745Z,0
2018-12-25T04:49:56.397Z,0
2018-12-25T04:50:56.377Z,0
2018-12-25T04:51:56.331Z,0
2018-12-25T04:52:56.416Z,0
2018-12-25T04:53:56.370Z,0
2018-12-25T04:54:56.744Z,0
2018-12-25T04:55:56.394Z,0
2018-12-25T04:56:56.365Z,0
2018-12-25T04:57:56.403Z,0
2018-12-25T04:58:56.392Z,0
2018-12-25T04:59:56.465Z,0
2018-12-25T05:00:56.777Z,0
2018-12-25T05:01:56.478Z,0
2018-12-25T05:02:56.441Z,0
2018-12-25T05:03:56.467Z,0
2018-12-25T05:04:56.443Z,0
2018-12-25T05:05:56.426Z,0
2018-12-25T05:06:56.802Z,0
2018-12-25T05:07:56.403Z,0
2018-12-25T05:08:56.405Z,0
2018-12-25T05:09:56.428Z,0
2018-12-25T05:10:56.410Z,0
2018-12-25T05:11:56.486Z,0
2018-12-25T05:12:56.882Z,0
2018-12-25T05:13:56.457Z,0
2018-12-25T05:14:56.396Z,0
2018-12-25T05:15:56.413Z,0
2018-12-25T05:16:56.461Z,0
2018-12-25T05:17:56.482Z,0
2018-12-25T05:18:56.795Z,0
2018-12-25T05:19:56.430Z,0
2018-12-25T05:20:56.420Z,0
2018-12-25T05:28:21.609Z,0
2018-12-25T05:28:34.305Z,0
2018-12-25T05:29:34.307Z,0
2018-12-25T05:30:34.197Z,0
2018-12-25T05:31:34.271Z,0
2018-12-25T05:32:34.207Z,0
2018-12-25T05:33:34.587Z,0
2018-12-25T05:34:34.287Z,0
2018-12-25T05:35:34.252Z,0
2018-12-25T05:36:34.227Z,0
2018-12-25T05:37:34.313Z,0
2018-12-25T05:38:34.246Z,0
2018-12-25T05:39:34.749Z,0
2018-12-25T05:40:34.210Z,0
2018-12-25T05:41:34.304Z,0
2018-12-25T05:42:34.221Z,0
2018-12-25T05:43:34.395Z,0
2018-12-25T05:44:34.188Z,0
2018-12-25T05:45:34.728Z,0
2018-12-25T05:46:34.286Z,0
2018-12-25T05:47:34.300Z,0
2018-12-25T05:48:34.241Z,0
2018-12-25T05:49:34.429Z,0
2018-12-25T05:50:34.259Z,0
2018-12-25T05:51:34.628Z,0
2018-12-25T05:52:34.287Z,0
2018-12-25T05:53:34.293Z,0
2018-12-25T05:54:34.249Z,0
2018-12-25T05:55:34.313Z,0
2018-12-25T05:56:34.247Z,0
2018-12-25T05:57:34.741Z,0
2018-12-25T05:58:39.470Z,0
2018-12-25T05:59:34.378Z,0
2018-12-25T06:00:34.313Z,0
2018-12-25T06:01:34.302Z,0
2018-12-25T06:02:34.254Z,0
2018-12-25T06:04:37.682Z,0
2018-12-25T06:05:34.475Z,0
2018-12-25T06:06:34.299Z,0
2018-12-25T06:07:37.969Z,0
2018-12-25T06:08:34.404Z,0
2018-12-25T06:09:34.438Z,0
2018-12-25T06:16:59.991Z,0
2018-12-25T06:17:12.577Z,0
2018-12-25T06:18:12.583Z,0
2018-12-25T06:19:12.575Z,0
2018-12-25T06:20:12.637Z,0
2018-12-25T06:21:12.619Z,0
2018-12-25T06:22:12.953Z,0
2018-12-25T06:23:12.632Z,0
2018-12-25T06:24:12.583Z,0
2018-12-25T06:25:12.586Z,0
2018-12-25T06:26:12.714Z,0
2018-12-25T06:27:12.579Z,0
2018-12-25T06:28:13.000Z,0
2018-12-25T06:29:12.592Z,0
2018-12-25T06:30:12.639Z,0
2018-12-25T06:31:12.632Z,0
2018-12-25T06:32:12.642Z,0
2018-12-25T06:33:12.680Z,0
2018-12-25T06:34:13.059Z,0
2018-12-25T06:35:12.720Z,0
2018-12-25T06:36:12.617Z,0
2018-12-25T06:37:12.600Z,0
2018-12-25T06:38:12.599Z,0
2018-12-25T06:39:12.788Z,0
2018-12-25T06:40:13.146Z,0
2018-12-25T06:41:12.618Z,0
2018-12-25T06:42:12.651Z,0
2018-12-25T06:43:12.593Z,0
2018-12-25T06:44:12.658Z,0
2018-12-25T06:48:42.084Z,0
2018-12-25T06:49:42.051Z,0
2018-12-25T06:50:42.065Z,0
2018-12-25T06:51:42.100Z,0
2018-12-25T06:52:42.365Z,0
2018-12-25T06:53:42.087Z,0
2018-12-25T06:54:42.413Z,0
2018-12-25T06:55:42.035Z,0
2018-12-25T06:56:42.106Z,0
2018-12-25T06:57:42.099Z,0
2018-12-25T06:58:42.442Z,0
2018-12-25T06:59:42.078Z,0
2018-12-25T07:00:42.082Z,0
2018-12-25T07:01:42.068Z,0
2018-12-25T07:06:59.091Z,0
2018-12-25T07:07:11.823Z,0
2018-12-25T07:08:11.798Z,0
2018-12-25T07:09:11.845Z,0
2018-12-25T07:10:12.437Z,0
2018-12-25T07:11:12.204Z,0
2018-12-25T07:12:11.786Z,0
2018-12-25T07:13:11.856Z,0
2018-12-25T07:14:11.798Z,4
2018-12-25T07:15:11.881Z,4
2018-12-25T07:16:11.831Z,0
2018-12-25T07:17:12.058Z,4
2018-12-25T07:24:38.640Z,8
2018-12-25T07:24:51.213Z,8
2018-12-25T07:25:51.306Z,8
2018-12-25T07:26:51.214Z,8
2018-12-25T07:27:51.207Z,8
2018-12-25T07:28:51.223Z,8
2018-12-25T07:29:53.640Z,8
2018-12-25T07:30:51.242Z,8
2018-12-25T07:31:51.281Z,8
2018-12-25T07:32:51.308Z,12
2018-12-25T07:33:51.256Z,8
2018-12-25T07:34:51.242Z,12
2018-12-25T07:35:52.582Z,8
2018-12-25T07:36:51.241Z,8
2018-12-25T07:37:51.279Z,12
2018-12-25T07:38:51.223Z,12
2018-12-25T07:39:51.358Z,16
2018-12-25T07:40:51.356Z,12
2018-12-25T07:41:52.722Z,16
2018-12-25T07:42:51.309Z,16
2018-12-25T07:43:51.239Z,20
2018-12-25T07:49:08.073Z,20
2018-12-25T07:49:20.649Z,20
2018-12-25T07:50:20.640Z,20
2018-12-25T07:51:26.634Z,20
2018-12-25T07:52:20.627Z,20
2018-12-25T07:53:20.970Z,24
2018-12-25T07:54:20.610Z,20
2018-12-25T07:59:37.536Z,24
2018-12-25T07:59:50.201Z,28
2018-12-25T08:00:50.348Z,28
2018-12-25T08:01:50.167Z,32
2018-12-25T08:02:50.216Z,32
2018-12-25T08:03:50.717Z,32
2018-12-25T08:04:50.215Z,28
2018-12-25T08:05:50.127Z,32
2018-12-25T08:06:50.197Z,32
2018-12-25T08:07:50.245Z,32
2018-12-25T08:08:50.185Z,36
2018-12-25T08:09:50.485Z,36
2018-12-25T08:10:50.166Z,32
2018-12-25T08:11:50.278Z,36
2018-12-25T08:12:50.179Z,36
2018-12-25T08:13:50.168Z,36
2018-12-25T08:14:50.185Z,36
2018-12-25T08:15:50.488Z,40
2018-12-25T08:16:50.139Z,36
2018-12-25T08:17:50.174Z,40
2018-12-25T08:18:50.216Z,40
2018-12-25T08:19:50.247Z,44
2018-12-25T08:20:50.197Z,40
2018-12-25T08:21:50.464Z,40
2018-12-25T08:22:50.200Z,40
2018-12-25T08:23:50.220Z,40
2018-12-25T08:24:50.264Z,44
2018-12-25T08:25:50.197Z,40
2018-12-25T08:26:50.218Z,40
2018-12-25T08:27:50.476Z,44
2018-12-25T08:28:50.165Z,44
2018-12-25T08:29:50.503Z,44
2018-12-25T08:30:50.178Z,48
2018-12-25T08:31:50.244Z,44
2018-12-25T08:32:50.198Z,40
2018-12-25T08:33:50.161Z,40
2018-12-25T08:34:50.227Z,40
2018-12-25T08:35:50.464Z,44
2018-12-25T08:36:50.227Z,48
2018-12-25T08:37:50.237Z,52
2018-12-25T08:38:50.270Z,52
2018-12-25T08:39:50.279Z,56
2018-12-25T08:40:50.191Z,56
2018-12-25T08:41:51.430Z,56
2018-12-25T08:42:50.258Z,56
2018-12-25T08:43:50.265Z,56
2018-12-25T08:44:50.275Z,52
2018-12-25T08:45:50.197Z,56
2018-12-25T08:46:50.251Z,56
2018-12-25T08:47:50.616Z,60
2018-12-25T08:48:50.274Z,60
2018-12-25T08:49:50.371Z,64
2018-12-25T08:55:07.184Z,68
2018-12-25T08:55:19.918Z,68
2018-12-25T08:56:19.779Z,64
2018-12-25T08:57:19.803Z,60
2018-12-25T08:58:19.758Z,56
2018-12-25T08:59:20.142Z,52
2018-12-25T09:00:20.767Z,48
2018-12-25T09:01:19.764Z,44
2018-12-25T09:02:19.812Z,40
2018-12-25T09:03:19.829Z,40
2018-12-25T09:04:19.720Z,40
2018-12-25T09:05:19.805Z,44
2018-12-25T09:06:19.776Z,44
2018-12-25T09:07:22.223Z,44
2018-12-25T09:08:19.800Z,52
2018-12-25T09:09:19.791Z,60
2018-12-25T09:10:19.838Z,72
2018-12-25T09:11:19.940Z,76
2018-12-25T09:12:21.906Z,84
2018-12-25T09:13:22.289Z,92
2018-12-25T09:14:19.825Z,96
2018-12-25T09:15:19.886Z,100
2018-12-25T09:16:19.806Z,112
2018-12-25T09:17:19.783Z,120
2018-12-25T09:18:19.885Z,128
2018-12-25T09:19:20.202Z,124
2018-12-25T09:20:19.902Z,128
2018-12-25T09:21:19.862Z,128
2018-12-25T09:22:19.861Z,120
2018-12-25T09:23:19.921Z,104
2018-12-25T09:24:19.815Z,96
2018-12-25T09:25:20.324Z,92
2018-12-25T09:26:19.789Z,92
2018-12-25T09:27:19.837Z,96
2018-12-25T09:28:19.817Z,100
2018-12-25T09:29:19.854Z,108
2018-12-25T09:30:20.517Z,108
2018-12-25T09:31:21.216Z,108
2018-12-25T09:32:20.009Z,104
2018-12-25T09:33:19.826Z,104
2018-12-25T09:34:19.858Z,100
2018-12-25T09:35:19.980Z,100
2018-12-25T09:36:19.969Z,100
2018-12-25T09:37:20.171Z,96
2018-12-25T09:38:19.970Z,92
2018-12-25T09:39:19.896Z,100
2018-12-25T09:40:19.936Z,104
2018-12-25T09:41:19.867Z,108
2018-12-25T09:42:19.934Z,116
2018-12-25T09:43:20.155Z,116
2018-12-25T09:44:19.818Z,116
2018-12-25T09:45:19.893Z,120
2018-12-25T09:46:19.904Z,128
2018-12-25T09:47:19.855Z,136
2018-12-25T09:48:22.349Z,144
2018-12-25T09:49:20.223Z,156
2018-12-25T09:50:19.917Z,164
2018-12-25T09:57:47.413Z,164
2018-12-25T09:57:59.951Z,168
2018-12-25T09:59:00.503Z,168
2018-12-25T10:00:00.367Z,172
2018-12-25T10:00:59.974Z,172
2018-12-25T10:02:00.147Z,172
2018-12-25T10:03:00.314Z,168
2018-12-25T10:03:59.955Z,164
2018-12-25T10:05:00.038Z,160
2018-12-25T10:06:00.204Z,152
2018-12-25T10:07:10.009Z,140
2018-12-25T10:07:59.996Z,132
2018-12-25T10:09:01.404Z,128
2018-12-25T10:09:59.995Z,124
2018-12-25T10:11:00.569Z,120
2018-12-25T10:12:01.042Z,116
2018-12-25T10:12:59.978Z,116
2018-12-25T10:14:00.115Z,112
2018-12-25T10:15:02.705Z,112
2018-12-25T10:16:00.003Z,116
2018-12-25T10:17:00.363Z,120
2018-12-25T10:18:02.636Z,116
2018-12-25T10:19:00.303Z,120
2018-12-25T10:20:00.024Z,120
2018-12-25T10:21:00.438Z,124
2018-12-25T10:22:06.120Z,120
2018-12-25T10:22:59.992Z,120
2018-12-25T10:24:00.292Z,116
2018-12-25T10:25:00.405Z,120
2018-12-25T10:26:02.114Z,124
2018-12-25T10:27:00.469Z,132
2018-12-25T10:28:00.086Z,136
2018-12-25T10:29:00.736Z,132
2018-12-25T10:30:00.387Z,128
2018-12-25T10:31:00.058Z,128
2018-12-25T10:32:00.763Z,132
2018-12-25T10:33:00.407Z,136
2018-12-25T10:34:00.401Z,148
2018-12-25T10:35:00.139Z,156
2018-12-25T10:36:00.048Z,156
2018-12-25T10:37:00.051Z,148
2018-12-25T10:38:00.049Z,136
2018-12-25T10:39:02.108Z,132
2018-12-25T10:40:00.379Z,120
2018-12-25T10:49:37.801Z,108
2018-12-25T10:49:52.073Z,104
2018-12-25T10:50:51.183Z,104
2018-12-25T10:51:50.413Z,100
2018-12-25T10:52:50.823Z,96
2018-12-25T10:53:51.243Z,88
2018-12-25T10:54:51.151Z,88
2018-12-25T10:55:50.566Z,88
2018-12-25T10:56:50.451Z,88
2018-12-25T10:57:51.306Z,92
2018-12-25T10:58:50.765Z,92
2018-12-25T10:59:51.332Z,96
2018-12-25T11:01:50.411Z,100
2018-12-25T11:02:50.390Z,104
2018-12-25T11:07:23.884Z,116
2018-12-25T11:08:21.760Z,112
2018-12-25T11:09:22.979Z,108
2018-12-25T11:10:21.132Z,104
2018-12-25T11:11:21.185Z,104
2018-12-25T11:12:20.797Z,104
2018-12-25T11:13:20.987Z,104
2018-12-25T11:14:21.160Z,100
2018-12-25T11:15:21.092Z,104
2018-12-25T11:16:20.973Z,104
2018-12-25T11:17:22.364Z,104
2018-12-25T11:18:21.436Z,104
2018-12-25T11:19:21.761Z,100
2018-12-25T11:20:21.441Z,96
2018-12-25T11:21:21.054Z,96
2018-12-25T11:22:28.838Z,100
2018-12-25T11:23:21.129Z,100
2018-12-25T11:24:20.933Z,100
2018-12-25T11:25:21.272Z,104
2018-12-25T11:26:20.999Z,108
2018-12-25T11:27:21.887Z,108
2018-12-25T11:28:20.984Z,108
2018-12-25T11:29:20.801Z,108
2018-12-25T11:30:20.837Z,108
2018-12-25T11:31:21.192Z,112
2018-12-25T11:32:20.921Z,112
2018-12-25T11:33:20.895Z,120
2018-12-25T11:34:20.895Z,120
2018-12-25T11:35:22.127Z,132
2018-12-25T11:36:20.856Z,136
2018-12-25T11:37:21.184Z,136
2018-12-25T11:38:21.010Z,132
2018-12-25T11:39:20.907Z,124
2018-12-25T11:40:21.186Z,116
2018-12-25T11:41:21.322Z,108
2018-12-25T11:42:21.926Z,104
2018-12-25T11:43:31.481Z,104
2018-12-25T11:44:21.005Z,100
2018-12-25T11:45:21.340Z,92
2018-12-25T11:46:20.873Z,92
2018-12-25T11:47:21.186Z,96
2018-12-25T11:50:27.872Z,112
2018-12-25T11:50:40.652Z,108
2018-12-25T11:51:40.509Z,120
2018-12-25T11:52:40.817Z,132
2018-12-25T11:53:40.506Z,136
2018-12-25T11:54:40.845Z,140
2018-12-25T11:55:40.993Z,144
2018-12-25T11:56:40.545Z,140
2018-12-25T11:57:40.513Z,132
2018-12-25T11:58:40.956Z,124
2018-12-25T11:59:40.663Z,120
2018-12-25T12:00:40.537Z,116
2018-12-25T12:01:40.504Z,112
2018-12-25T12:02:40.522Z,108
2018-12-25T12:03:40.548Z,104
2018-12-25T12:04:41.069Z,104
2018-12-25T12:05:41.166Z,100
2018-12-25T12:06:40.743Z,96
2018-12-25T12:07:41.266Z,96
2018-12-25T12:08:40.897Z,92
2018-12-25T12:09:40.939Z,92
2018-12-25T12:10:40.843Z,92
2018-12-25T12:11:40.546Z,92
2018-12-25T12:12:40.557Z,92
2018-12-25T12:13:40.535Z,96
2018-12-25T12:14:40.529Z,100
2018-12-25T12:15:40.721Z,96
2018-12-25T12:16:40.949Z,100
2018-12-25T12:17:40.500Z,96
2018-12-25T12:18:40.520Z,92
2018-12-25T12:19:40.618Z,84
2018-12-25T12:20:40.520Z,84
2018-12-25T12:21:40.779Z,76
2018-12-25T12:22:46.229Z,72
2018-12-25T12:23:40.617Z,72
2018-12-25T12:24:40.688Z,72
2018-12-25T12:29:56.568Z,72
2018-12-25T12:30:09.639Z,80
2018-12-25T12:31:09.639Z,76
2018-12-25T12:32:09.597Z,72
2018-12-25T12:36:40.088Z,72
2018-12-25T12:37:38.608Z,80
2018-12-25T12:38:39.639Z,84
2018-12-25T12:39:41.756Z,88
2018-12-25T12:40:40.477Z,92
2018-12-25T12:41:38.476Z,88
2018-12-25T12:42:38.958Z,88
2018-12-25T12:43:39.221Z,92
2018-12-25T12:44:38.636Z,92
2018-12-25T12:45:38.544Z,96
2018-12-25T12:46:38.531Z,92
2018-12-25T12:47:38.625Z,92
2018-12-25T12:48:38.862Z,88
2018-12-25T12:49:40.346Z,92
2018-12-25T12:50:38.529Z,92
2018-12-25T12:51:38.537Z,88
2018-12-25T12:52:45.349Z,84
2018-12-25T12:53:38.621Z,84
2018-12-25T12:54:38.577Z,80
2018-12-25T12:55:38.549Z,80
2018-12-25T12:56:38.538Z,76
2018-12-25T12:57:39.662Z,76
2018-12-25T12:58:38.908Z,72
2018-12-25T12:59:38.650Z,72
2018-12-25T13:00:38.913Z,72
2018-12-25T13:01:38.701Z,72
2018-12-25T13:02:38.554Z,72
2018-12-25T13:03:38.574Z,72
2018-12-25T13:04:38.582Z,72
2018-12-25T13:05:38.679Z,72
2018-12-25T13:06:38.967Z,72
2018-12-25T13:07:38.516Z,72
2018-12-25T13:08:38.583Z,72
2018-12-25T13:09:38.623Z,72
2018-12-25T13:10:38.866Z,68
2018-12-25T13:11:38.533Z,68
2018-12-25T13:12:38.924Z,68
2018-12-25T13:13:38.681Z,72
2018-12-25T13:14:38.583Z,68
2018-12-25T13:15:38.626Z,72
2018-12-25T13:16:38.587Z,72
2018-12-25T13:17:38.618Z,68
2018-12-25T13:18:38.958Z,68
2018-12-25T13:19:38.616Z,68
2018-12-25T13:20:38.610Z,64
2018-12-25T13:21:38.631Z,68
2018-12-25T13:22:38.910Z,68
2018-12-25T13:23:38.651Z,68
2018-12-25T13:24:38.610Z,68
2018-12-25T13:25:38.594Z,68
2018-12-25T13:26:38.582Z,68
2018-12-25T13:27:38.613Z,68
2018-12-25T13:28:38.958Z,68
2018-12-25T13:29:38.663Z,68
2018-12-25T13:30:38.764Z,68
2018-12-25T13:31:38.676Z,68
2018-12-25T13:32:38.666Z,68
2018-12-25T13:33:38.671Z,64
2018-12-25T13:34:39.370Z,64
2018-12-25T13:35:38.587Z,64
2018-12-25T13:36:38.850Z,68
2018-12-25T13:37:38.580Z,64
2018-12-25T13:38:38.618Z,64
2018-12-25T13:39:38.593Z,60
2018-12-25T13:40:38.670Z,60
2018-12-25T13:41:38.643Z,60
2018-12-25T13:42:38.996Z,60
2018-12-25T13:43:38.586Z,56
2018-12-25T13:44:38.662Z,56
2018-12-25T13:45:38.660Z,56
2018-12-25T13:46:38.677Z,56
2018-12-25T13:47:38.662Z,56
2018-12-25T13:48:38.920Z,60
2018-12-25T13:49:38.612Z,60
2018-12-25T13:50:38.578Z,60
2018-12-25T13:51:38.637Z,56
2018-12-25T13:52:38.625Z,60
2018-12-25T13:53:38.661Z,60
2018-12-25T13:54:38.950Z,60
2018-12-25T13:55:38.595Z,64
2018-12-25T13:56:38.617Z,60
2018-12-25T13:57:38.801Z,60
2018-12-25T13:58:38.695Z,60
2018-12-25T13:59:38.693Z,60
2018-12-25T14:00:39.078Z,60
2018-12-25T14:01:38.650Z,60
2018-12-25T14:03:13.281Z,60
2018-12-25T14:04:09.235Z,60
2018-12-25T14:05:16.726Z,56
2018-12-25T14:05:56.961Z,56
2018-12-25T14:07:03.650Z,56
2018-12-25T14:07:47.609Z,52
2018-12-25T14:09:35.332Z,52
2018-12-25T14:10:22.096Z,48
2018-12-25T14:11:36.949Z,48
2018-12-25T14:12:26.902Z,48
2018-12-25T14:13:40.723Z,48
2018-12-25T14:14:31.041Z,48
2018-12-25T14:15:20.104Z,48
2018-12-25T14:22:50.140Z,48
2018-12-25T14:23:10.993Z,36
2018-12-25T14:24:02.908Z,36
2018-12-25T14:25:02.864Z,36
2018-12-25T14:26:02.853Z,36
2018-12-25T14:27:03.099Z,36
2018-12-25T14:28:02.824Z,32
2018-12-25T14:29:02.795Z,28
2018-12-25T14:30:03.051Z,28
2018-12-25T14:31:02.788Z,28
2018-12-25T14:32:02.806Z,28
2018-12-25T14:33:03.119Z,24
2018-12-25T14:34:02.813Z,24
2018-12-25T14:35:02.867Z,24
2018-12-25T14:36:02.771Z,24
2018-12-25T14:37:02.851Z,24
2018-12-25T14:38:02.870Z,24
2018-12-25T14:39:03.114Z,24
2018-12-25T14:40:03.091Z,20
2018-12-25T14:41:02.736Z,20
2018-12-25T14:42:02.788Z,20
2018-12-25T14:43:02.857Z,20
2018-12-25T14:44:11.126Z,16
2018-12-25T14:45:03.171Z,20
2018-12-25T14:46:02.799Z,20
2018-12-25T14:47:02.765Z,20
2018-12-25T14:48:02.758Z,16
2018-12-25T14:49:02.836Z,20
2018-12-25T14:53:33.517Z,16
2018-12-25T14:54:33.440Z,12
2018-12-25T14:55:33.488Z,16
2018-12-25T14:56:33.396Z,12
2018-12-25T14:57:33.732Z,12
2018-12-25T14:58:33.445Z,8
2018-12-25T14:59:33.397Z,12
2018-12-25T15:00:33.431Z,12
2018-12-25T15:01:33.427Z,8
2018-12-25T15:02:33.474Z,8
2018-12-25T15:03:33.748Z,8
2018-12-25T15:04:33.441Z,8
2018-12-25T15:05:33.847Z,8
2018-12-25T15:06:33.396Z,4
2018-12-25T15:07:33.496Z,8
2018-12-25T15:08:33.549Z,8
2018-12-25T15:09:33.479Z,8
2018-12-25T15:10:33.531Z,4
2018-12-25T15:11:33.890Z,4
2018-12-25T15:12:33.526Z,4
2018-12-25T15:13:33.488Z,8
2018-12-25T15:14:33.598Z,4
2018-12-25T15:15:45.996Z,4
2018-12-25T15:16:33.447Z,4
2018-12-25T15:17:33.881Z,0
2018-12-25T15:18:33.528Z,4
2018-12-25T15:19:33.510Z,4
2018-12-25T15:20:33.492Z,4
2018-12-25T15:21:34.415Z,4
2018-12-25T15:22:33.496Z,4
2018-12-25T15:23:37.432Z,4
2018-12-25T15:24:33.514Z,4
2018-12-25T15:25:33.516Z,0
2018-12-25T15:26:33.497Z,0
2018-12-25T15:27:33.875Z,4
2018-12-25T15:28:33.545Z,4
2018-12-25T15:29:33.482Z,4
2018-12-25T15:30:33.501Z,0
2018-12-25T15:31:33.465Z,0
2018-12-25T15:32:33.505Z,0
2018-12-25T15:33:33.815Z,0
2018-12-25T15:34:33.546Z,4
2018-12-25T15:35:33.929Z,4
2018-12-25T15:36:33.542Z,0
2018-12-25T15:37:33.483Z,0
2018-12-25T15:38:33.506Z,0
2018-12-25T15:39:33.529Z,0
2018-12-25T15:40:33.689Z,0
2018-12-25T15:41:33.857Z,0
2018-12-25T15:42:33.528Z,0
2018-12-25T15:47:51.339Z,0
2018-12-25T15:48:04.025Z,0
2018-12-25T15:49:04.035Z,0
2018-12-25T15:51:01.062Z,0
2018-12-25T15:52:28.126Z,0
2018-12-25T15:56:48.916Z,0
2018-12-25T15:57:44.779Z,0
2018-12-25T15:58:44.102Z,0
2018-12-25T15:59:44.081Z,0